Oklahoma City, OK (73112)

6:57 AM CDT on October 20, 2014 (GMT -0500)
Penshurst 3rd | Change Station
CLOSE
Current Station
Personal Weather Station
Location: Oklahoma CIty, OK
Elevation: 1200 ft
Nearby Weather Stations

Elev 1200 ft 35.54 °N, 97.56 °W | Updated 17 seconds ago

Mostly Cloudy
Mostly Cloudy
60.5 °F
Feels Like 60.5 °F
N
0.0
Wind Variable Wind from ESE
Gusts 0.0 mph

Today
High -- | Low -- °F
--% Chance of Precip.
Yesterday
High -- | Low -- °F
Precip. -- in
7:41 AM 6:48 PM
Waning Crescent, 11% visible
Pressure 30.00 in
Visibility 9.0 miles
Clouds Scattered Clouds 6500 ft
Overcast 7500 ft
Dew Point 56 °F
Humidity 84%
Rainfall 0.00 in
Snow Depth Not available.
UV 0 out of 12
Pollen 5.40 out of 12
Ozone Good
PM2.5 Good
Flu Activity No Activity
METAR KPWA 201053Z AUTO 21011KT 9SM SCT065 OVC075 16/13 A3003 RMK AO2 SLP159 T01610128

More Conditions Fewer Conditions

Pressure 30.00 in
Visibility 9.0 miles
Clouds Scattered Clouds 6500 ft
Overcast 7500 ft
Dew Point 56 °F
Humidity 84%
Rainfall 0.00 in
Snow Depth Not available.
UV 0 out of 12
Pollen 5.40 out of 12
Ozone Good
PM2.5 Good
Flu Activity No Activity
METAR KPWA 201053Z AUTO 21011KT 9SM SCT065 OVC075 16/13 A3003 RMK AO2 SLP159 T01610128

More Conditions Fewer Conditions

10-Day Weather Forecast

Almanac

Astronomy

Oct. 20, 2014 Rise Set
Actual Time 7:41 AM CDT 6:48 PM CDT
Civil Twilight 7:15 AM CDT 7:14 PM CDT
Nautical Twilight 6:45 AM CDT 7:44 PM CDT
Astronomical Twilight 6:15 AM CDT 8:13 PM CDT
Moon 4:36 AM CDT 5:06 PM CDT
Length of Visible Light 11h 59m
Length of Day
11h 07m
Waning Crescent, 11% of the Moon is Illuminated
Today
Waning Crescent
Oct 23
New
Oct 30
First Quarter
Nov 6
Full
Nov 14
Last Quarter

Today's Extremes

State Highs State Lows

Community

WunderPhotos

Upload Photos

1,763,341 photos uploaded!

Nearby

Air Quality

  Air Quality AQ Index Pollutant
Yesterday Good
OZONE
Yesterday Good
PM2.5
Current Good
PM2.5
Current Good
OZONE
Monday Good
OZONE
Monday Good
PM2.5
Tuesday Good
OZONE
Tuesday Good
PM2.5
Wednesday Good
OZONE
Wednesday Good
PM2.5

Snow Depth

Station Depth Elevation
No new snow has been reported.

Earthquake Activity

City Distance Mag. Time & Date
Pawnee, Oklahoma 63 miles 3.0 10:04 PM CDT
2014-10-18
Pawnee, Oklahoma 63 miles 3.0 8:49 PM CDT
2014-10-18
Pawnee, Oklahoma 64 miles 3.3 8:16 PM CDT
2014-10-18
Perry, Oklahoma 47 miles 3.0 2:26 PM CDT
2014-10-18
Minimum magnitude displayed is 2.5.

Coastal Water Temperatures

Place Temperature
No Stations Reporting

Nearby Weather Stations